sensor_id;sensor_type;location;lat;lon;timestamp;P1;durP1;ratioP1;P2;durP2;ratioP2
82034;SDS011;71599;49.892;18.914;2023-07-31T00:04:38;2.45;;;1.20;;
82034;SDS011;71599;49.892;18.914;2023-07-31T00:09:39;2.08;;;1.30;;
82034;SDS011;71599;49.892;18.914;2023-07-31T00:14:41;1.88;;;1.25;;
82034;SDS011;71599;49.892;18.914;2023-07-31T00:19:42;2.60;;;1.25;;
82034;SDS011;71599;49.892;18.914;2023-07-31T00:24:43;2.35;;;1.08;;
82034;SDS011;71599;49.892;18.914;2023-07-31T00:29:46;1.05;;;0.90;;
82034;SDS011;71599;49.892;18.914;2023-07-31T00:34:47;2.58;;;1.25;;
82034;SDS011;71599;49.892;18.914;2023-07-31T00:39:47;2.10;;;1.33;;
82034;SDS011;71599;49.892;18.914;2023-07-31T00:44:50;2.95;;;1.25;;
82034;SDS011;71599;49.892;18.914;2023-07-31T00:49:51;2.13;;;1.20;;
82034;SDS011;71599;49.892;18.914;2023-07-31T00:54:52;1.92;;;1.30;;
82034;SDS011;71599;49.892;18.914;2023-07-31T00:59:55;1.85;;;1.30;;
82034;SDS011;71599;49.892;18.914;2023-07-31T01:04:56;2.33;;;1.20;;
82034;SDS011;71599;49.892;18.914;2023-07-31T01:09:59;1.92;;;1.10;;
82034;SDS011;71599;49.892;18.914;2023-07-31T01:15:07;1.65;;;1.33;;
82034;SDS011;71599;49.892;18.914;2023-07-31T01:20:10;1.92;;;1.35;;
82034;SDS011;71599;49.892;18.914;2023-07-31T01:25:16;1.20;;;1.10;;
82034;SDS011;71599;49.892;18.914;2023-07-31T01:30:34;1.30;;;1.20;;
82034;SDS011;71599;49.892;18.914;2023-07-31T01:35:42;2.00;;;1.33;;
82034;SDS011;71599;49.892;18.914;2023-07-31T01:40:44;1.40;;;1.08;;
82034;SDS011;71599;49.892;18.914;2023-07-31T01:45:52;1.90;;;1.70;;
82034;SDS011;71599;49.892;18.914;2023-07-31T01:50:53;3.60;;;1.35;;
82034;SDS011;71599;49.892;18.914;2023-07-31T01:55:54;2.92;;;1.45;;
82034;SDS011;71599;49.892;18.914;2023-07-31T02:00:56;2.53;;;2.10;;
82034;SDS011;71599;49.892;18.914;2023-07-31T02:05:57;3.80;;;1.73;;
82034;SDS011;71599;49.892;18.914;2023-07-31T02:10:58;4.10;;;1.80;;
82034;SDS011;71599;49.892;18.914;2023-07-31T02:16:01;2.00;;;1.70;;
82034;SDS011;71599;49.892;18.914;2023-07-31T02:21:02;3.10;;;1.52;;
82034;SDS011;71599;49.892;18.914;2023-07-31T02:26:02;2.03;;;1.30;;
82034;SDS011;71599;49.892;18.914;2023-07-31T02:31:05;3.45;;;1.92;;
82034;SDS011;71599;49.892;18.914;2023-07-31T02:36:06;3.42;;;1.73;;
82034;SDS011;71599;49.892;18.914;2023-07-31T02:41:07;2.13;;;1.85;;
82034;SDS011;71599;49.892;18.914;2023-07-31T02:46:09;3.85;;;2.30;;
82034;SDS011;71599;49.892;18.914;2023-07-31T02:51:10;2.75;;;1.70;;
82034;SDS011;71599;49.892;18.914;2023-07-31T02:56:11;3.45;;;1.98;;
82034;SDS011;71599;49.892;18.914;2023-07-31T03:01:13;4.20;;;2.00;;
82034;SDS011;71599;49.892;18.914;2023-07-31T03:06:14;3.67;;;2.47;;
82034;SDS011;71599;49.892;18.914;2023-07-31T03:11:15;3.78;;;1.80;;
82034;SDS011;71599;49.892;18.914;2023-07-31T03:16:17;2.95;;;2.17;;
82034;SDS011;71599;49.892;18.914;2023-07-31T03:21:18;2.50;;;2.08;;
82034;SDS011;71599;49.892;18.914;2023-07-31T03:26:19;1.90;;;1.50;;
82034;SDS011;71599;49.892;18.914;2023-07-31T03:31:22;3.92;;;1.83;;
82034;SDS011;71599;49.892;18.914;2023-07-31T03:36:23;3.10;;;1.70;;
82034;SDS011;71599;49.892;18.914;2023-07-31T03:41:24;3.95;;;2.15;;
82034;SDS011;71599;49.892;18.914;2023-07-31T03:46:26;2.10;;;1.80;;
82034;SDS011;71599;49.892;18.914;2023-07-31T03:51:27;2.38;;;1.98;;
82034;SDS011;71599;49.892;18.914;2023-07-31T03:56:28;3.63;;;2.20;;
82034;SDS011;71599;49.892;18.914;2023-07-31T04:01:30;4.75;;;2.40;;
82034;SDS011;71599;49.892;18.914;2023-07-31T04:06:31;3.15;;;1.90;;
82034;SDS011;71599;49.892;18.914;2023-07-31T04:11:32;2.85;;;1.70;;
82034;SDS011;71599;49.892;18.914;2023-07-31T04:16:35;4.50;;;2.17;;
82034;SDS011;71599;49.892;18.914;2023-07-31T04:21:36;3.30;;;2.28;;
82034;SDS011;71599;49.892;18.914;2023-07-31T04:26:36;3.08;;;2.08;;
82034;SDS011;71599;49.892;18.914;2023-07-31T04:31:39;2.85;;;2.03;;
82034;SDS011;71599;49.892;18.914;2023-07-31T04:36:40;4.43;;;2.42;;
82034;SDS011;71599;49.892;18.914;2023-07-31T04:41:41;4.25;;;2.47;;
82034;SDS011;71599;49.892;18.914;2023-07-31T04:46:43;4.35;;;2.80;;
82034;SDS011;71599;49.892;18.914;2023-07-31T04:51:44;3.40;;;2.30;;
82034;SDS011;71599;49.892;18.914;2023-07-31T04:56:45;7.53;;;2.85;;
82034;SDS011;71599;49.892;18.914;2023-07-31T05:01:47;4.20;;;2.05;;
82034;SDS011;71599;49.892;18.914;2023-07-31T05:06:48;2.70;;;2.15;;
82034;SDS011;71599;49.892;18.914;2023-07-31T05:11:49;2.38;;;1.98;;
82034;SDS011;71599;49.892;18.914;2023-07-31T05:16:51;3.80;;;2.15;;
82034;SDS011;71599;49.892;18.914;2023-07-31T05:21:52;2.83;;;1.60;;
82034;SDS011;71599;49.892;18.914;2023-07-31T05:26:53;1.63;;;1.50;;
82034;SDS011;71599;49.892;18.914;2023-07-31T05:31:56;2.28;;;1.90;;
82034;SDS011;71599;49.892;18.914;2023-07-31T05:36:57;1.90;;;1.60;;
82034;SDS011;71599;49.892;18.914;2023-07-31T05:41:57;1.83;;;1.67;;
82034;SDS011;71599;49.892;18.914;2023-07-31T05:47:00;2.75;;;1.83;;
82034;SDS011;71599;49.892;18.914;2023-07-31T05:52:01;2.22;;;1.48;;
82034;SDS011;71599;49.892;18.914;2023-07-31T05:57:02;2.78;;;1.27;;
82034;SDS011;71599;49.892;18.914;2023-07-31T06:02:05;1.95;;;1.40;;
82034;SDS011;71599;49.892;18.914;2023-07-31T06:07:06;5.57;;;1.90;;
82034;SDS011;71599;49.892;18.914;2023-07-31T06:12:07;5.53;;;1.65;;
82034;SDS011;71599;49.892;18.914;2023-07-31T06:17:10;4.53;;;1.67;;
82034;SDS011;71599;49.892;18.914;2023-07-31T06:22:11;1.58;;;1.15;;
82034;SDS011;71599;49.892;18.914;2023-07-31T06:27:12;2.47;;;1.55;;
82034;SDS011;71599;49.892;18.914;2023-07-31T06:32:14;2.08;;;1.67;;
82034;SDS011;71599;49.892;18.914;2023-07-31T06:37:15;2.95;;;1.48;;
82034;SDS011;71599;49.892;18.914;2023-07-31T06:42:16;3.15;;;1.67;;
82034;SDS011;71599;49.892;18.914;2023-07-31T06:47:19;4.22;;;1.55;;
82034;SDS011;71599;49.892;18.914;2023-07-31T06:52:20;3.17;;;1.70;;
82034;SDS011;71599;49.892;18.914;2023-07-31T06:57:21;2.22;;;1.50;;
82034;SDS011;71599;49.892;18.914;2023-07-31T07:02:23;2.35;;;1.40;;
82034;SDS011;71599;49.892;18.914;2023-07-31T07:07:24;3.42;;;1.30;;
82034;SDS011;71599;49.892;18.914;2023-07-31T07:12:25;4.03;;;1.45;;
82034;SDS011;71599;49.892;18.914;2023-07-31T07:17:28;2.97;;;1.83;;
82034;SDS011;71599;49.892;18.914;2023-07-31T07:22:30;5.18;;;2.20;;
82034;SDS011;71599;49.892;18.914;2023-07-31T07:27:31;3.53;;;1.75;;
82034;SDS011;71599;49.892;18.914;2023-07-31T07:32:33;3.90;;;1.80;;
82034;SDS011;71599;49.892;18.914;2023-07-31T07:37:34;10.18;;;2.65;;
82034;SDS011;71599;49.892;18.914;2023-07-31T07:42:35;2.65;;;1.60;;
82034;SDS011;71599;49.892;18.914;2023-07-31T07:47:37;3.83;;;1.58;;
82034;SDS011;71599;49.892;18.914;2023-07-31T07:52:39;2.22;;;1.23;;
82034;SDS011;71599;49.892;18.914;2023-07-31T07:57:40;3.05;;;1.80;;
82034;SDS011;71599;49.892;18.914;2023-07-31T08:02:42;3.60;;;1.75;;
82034;SDS011;71599;49.892;18.914;2023-07-31T08:07:43;4.07;;;1.50;;
82034;SDS011;71599;49.892;18.914;2023-07-31T08:12:44;2.83;;;1.60;;
82034;SDS011;71599;49.892;18.914;2023-07-31T08:17:47;2.67;;;1.48;;
82034;SDS011;71599;49.892;18.914;2023-07-31T08:22:48;3.17;;;1.45;;
82034;SDS011;71599;49.892;18.914;2023-07-31T08:27:49;3.33;;;1.33;;
82034;SDS011;71599;49.892;18.914;2023-07-31T08:32:51;3.67;;;1.67;;
82034;SDS011;71599;49.892;18.914;2023-07-31T08:37:52;5.00;;;1.52;;
82034;SDS011;71599;49.892;18.914;2023-07-31T08:42:53;3.33;;;1.63;;
82034;SDS011;71599;49.892;18.914;2023-07-31T08:47:57;1.77;;;1.67;;
82034;SDS011;71599;49.892;18.914;2023-07-31T08:53:00;3.03;;;1.80;;
82034;SDS011;71599;49.892;18.914;2023-07-31T08:58:01;3.08;;;1.83;;
82034;SDS011;71599;49.892;18.914;2023-07-31T09:03:07;3.13;;;1.50;;
82034;SDS011;71599;49.892;18.914;2023-07-31T09:08:10;4.00;;;1.63;;
82034;SDS011;71599;49.892;18.914;2023-07-31T09:13:12;4.00;;;1.40;;
82034;SDS011;71599;49.892;18.914;2023-07-31T09:18:15;4.50;;;2.00;;
82034;SDS011;71599;49.892;18.914;2023-07-31T09:23:16;2.55;;;1.45;;
82034;SDS011;71599;49.892;18.914;2023-07-31T09:28:17;1.70;;;1.60;;
82034;SDS011;71599;49.892;18.914;2023-07-31T09:33:19;5.63;;;1.83;;
82034;SDS011;71599;49.892;18.914;2023-07-31T09:38:20;3.90;;;2.10;;
82034;SDS011;71599;49.892;18.914;2023-07-31T09:43:21;3.05;;;1.60;;
82034;SDS011;71599;49.892;18.914;2023-07-31T09:48:24;2.40;;;1.92;;
82034;SDS011;71599;49.892;18.914;2023-07-31T09:53:27;2.30;;;1.80;;
82034;SDS011;71599;49.892;18.914;2023-07-31T09:58:29;2.22;;;1.80;;
82034;SDS011;71599;49.892;18.914;2023-07-31T10:03:35;4.00;;;2.03;;
82034;SDS011;71599;49.892;18.914;2023-07-31T10:08:38;3.80;;;2.67;;
82034;SDS011;71599;49.892;18.914;2023-07-31T10:13:40;3.40;;;2.08;;
82034;SDS011;71599;49.892;18.914;2023-07-31T10:18:44;5.68;;;2.10;;
82034;SDS011;71599;49.892;18.914;2023-07-31T10:23:46;4.25;;;2.60;;
82034;SDS011;71599;49.892;18.914;2023-07-31T10:28:47;5.63;;;1.67;;
82034;SDS011;71599;49.892;18.914;2023-07-31T10:33:51;3.20;;;1.98;;
82034;SDS011;71599;49.892;18.914;2023-07-31T10:38:54;10.90;;;7.57;;
82034;SDS011;71599;49.892;18.914;2023-07-31T10:43:57;4.22;;;2.00;;
82034;SDS011;71599;49.892;18.914;2023-07-31T10:49:00;2.03;;;1.60;;
82034;SDS011;71599;49.892;18.914;2023-07-31T10:54:11;2.78;;;2.17;;
82034;SDS011;71599;49.892;18.914;2023-07-31T10:59:13;3.38;;;1.85;;
82034;SDS011;71599;49.892;18.914;2023-07-31T11:04:16;3.25;;;1.60;;
82034;SDS011;71599;49.892;18.914;2023-07-31T11:09:22;3.72;;;1.90;;
82034;SDS011;71599;49.892;18.914;2023-07-31T11:14:24;3.33;;;2.42;;
82034;SDS011;71599;49.892;18.914;2023-07-31T11:19:27;3.22;;;1.63;;
82034;SDS011;71599;49.892;18.914;2023-07-31T11:24:28;2.10;;;1.33;;
82034;SDS011;71599;49.892;18.914;2023-07-31T11:29:29;5.88;;;3.45;;
82034;SDS011;71599;49.892;18.914;2023-07-31T11:34:31;3.63;;;1.33;;
82034;SDS011;71599;49.892;18.914;2023-07-31T11:39:32;1.88;;;1.30;;
82034;SDS011;71599;49.892;18.914;2023-07-31T11:44:42;1.42;;;1.23;;
82034;SDS011;71599;49.892;18.914;2023-07-31T11:49:44;3.75;;;1.50;;
82034;SDS011;71599;49.892;18.914;2023-07-31T11:54:45;3.22;;;1.35;;
82034;SDS011;71599;49.892;18.914;2023-07-31T11:59:47;2.08;;;1.30;;
82034;SDS011;71599;49.892;18.914;2023-07-31T12:04:50;1.80;;;1.13;;
82034;SDS011;71599;49.892;18.914;2023-07-31T12:09:52;3.20;;;1.50;;
82034;SDS011;71599;49.892;18.914;2023-07-31T12:14:53;3.33;;;1.33;;
82034;SDS011;71599;49.892;18.914;2023-07-31T12:19:57;1.80;;;1.02;;
82034;SDS011;71599;49.892;18.914;2023-07-31T12:24:58;2.75;;;1.77;;
82034;SDS011;71599;49.892;18.914;2023-07-31T12:29:59;2.88;;;1.27;;
82034;SDS011;71599;49.892;18.914;2023-07-31T12:35:01;4.80;;;1.38;;
82034;SDS011;71599;49.892;18.914;2023-07-31T12:40:07;3.90;;;1.50;;
82034;SDS011;71599;49.892;18.914;2023-07-31T12:45:09;2.00;;;1.40;;
82034;SDS011;71599;49.892;18.914;2023-07-31T12:50:11;4.60;;;2.00;;
82034;SDS011;71599;49.892;18.914;2023-07-31T12:55:12;3.00;;;1.38;;
82034;SDS011;71599;49.892;18.914;2023-07-31T13:00:13;4.35;;;1.60;;
82034;SDS011;71599;49.892;18.914;2023-07-31T13:05:16;3.67;;;1.73;;
82034;SDS011;71599;49.892;18.914;2023-07-31T13:10:17;3.97;;;1.90;;
82034;SDS011;71599;49.892;18.914;2023-07-31T13:15:18;2.05;;;1.55;;
82034;SDS011;71599;49.892;18.914;2023-07-31T13:20:20;2.65;;;1.27;;
82034;SDS011;71599;49.892;18.914;2023-07-31T13:25:21;5.10;;;1.50;;
82034;SDS011;71599;49.892;18.914;2023-07-31T13:30:22;1.95;;;0.95;;
82034;SDS011;71599;49.892;18.914;2023-07-31T13:35:24;2.65;;;1.65;;
82034;SDS011;71599;49.892;18.914;2023-07-31T13:40:25;3.50;;;1.38;;
82034;SDS011;71599;49.892;18.914;2023-07-31T13:45:26;1.70;;;0.93;;
82034;SDS011;71599;49.892;18.914;2023-07-31T13:50:29;3.65;;;1.10;;
82034;SDS011;71599;49.892;18.914;2023-07-31T13:55:30;3.17;;;1.15;;
82034;SDS011;71599;49.892;18.914;2023-07-31T14:00:30;3.08;;;1.10;;
82034;SDS011;71599;49.892;18.914;2023-07-31T14:05:33;2.25;;;1.20;;
82034;SDS011;71599;49.892;18.914;2023-07-31T14:10:34;3.22;;;1.33;;
82034;SDS011;71599;49.892;18.914;2023-07-31T14:15:35;2.25;;;1.35;;
82034;SDS011;71599;49.892;18.914;2023-07-31T14:20:38;2.65;;;1.20;;
82034;SDS011;71599;49.892;18.914;2023-07-31T14:25:39;3.42;;;0.95;;
82034;SDS011;71599;49.892;18.914;2023-07-31T14:30:40;2.05;;;1.00;;
82034;SDS011;71599;49.892;18.914;2023-07-31T14:35:42;4.35;;;1.05;;
82034;SDS011;71599;49.892;18.914;2023-07-31T14:40:43;2.40;;;1.10;;
82034;SDS011;71599;49.892;18.914;2023-07-31T14:45:44;2.03;;;1.05;;
82034;SDS011;71599;49.892;18.914;2023-07-31T14:50:46;3.42;;;1.30;;
82034;SDS011;71599;49.892;18.914;2023-07-31T14:55:47;1.67;;;1.20;;
82034;SDS011;71599;49.892;18.914;2023-07-31T15:00:48;5.90;;;1.73;;
82034;SDS011;71599;49.892;18.914;2023-07-31T15:05:51;7.53;;;1.98;;
82034;SDS011;71599;49.892;18.914;2023-07-31T15:10:52;2.50;;;1.33;;
82034;SDS011;71599;49.892;18.914;2023-07-31T15:15:53;4.93;;;1.45;;
82034;SDS011;71599;49.892;18.914;2023-07-31T15:20:55;3.55;;;1.45;;
82034;SDS011;71599;49.892;18.914;2023-07-31T15:25:56;2.63;;;1.98;;
82034;SDS011;71599;49.892;18.914;2023-07-31T15:30:57;5.57;;;2.25;;
82034;SDS011;71599;49.892;18.914;2023-07-31T15:36:00;3.58;;;1.70;;
82034;SDS011;71599;49.892;18.914;2023-07-31T15:41:01;7.15;;;2.10;;
82034;SDS011;71599;49.892;18.914;2023-07-31T15:46:02;3.72;;;2.20;;
82034;SDS011;71599;49.892;18.914;2023-07-31T15:51:04;6.07;;;2.03;;
82034;SDS011;71599;49.892;18.914;2023-07-31T15:56:05;3.97;;;2.22;;
82034;SDS011;71599;49.892;18.914;2023-07-31T16:01:07;4.32;;;2.58;;
82034;SDS011;71599;49.892;18.914;2023-07-31T16:06:09;3.88;;;2.08;;
82034;SDS011;71599;49.892;18.914;2023-07-31T16:11:10;3.75;;;1.65;;
82034;SDS011;71599;49.892;18.914;2023-07-31T16:16:12;4.88;;;2.10;;
82034;SDS011;71599;49.892;18.914;2023-07-31T16:21:15;3.92;;;1.40;;
82034;SDS011;71599;49.892;18.914;2023-07-31T16:26:16;2.40;;;1.40;;
82034;SDS011;71599;49.892;18.914;2023-07-31T16:31:16;3.08;;;1.42;;
82034;SDS011;71599;49.892;18.914;2023-07-31T16:36:19;1.85;;;1.20;;
82034;SDS011;71599;49.892;18.914;2023-07-31T16:41:20;2.35;;;1.48;;
82034;SDS011;71599;49.892;18.914;2023-07-31T16:46:21;2.63;;;1.33;;
82034;SDS011;71599;49.892;18.914;2023-07-31T16:51:24;2.92;;;1.30;;
82034;SDS011;71599;49.892;18.914;2023-07-31T16:56:26;3.92;;;1.42;;
82034;SDS011;71599;49.892;18.914;2023-07-31T17:01:27;2.25;;;1.63;;
82034;SDS011;71599;49.892;18.914;2023-07-31T17:06:30;4.90;;;1.92;;
82034;SDS011;71599;49.892;18.914;2023-07-31T17:11:30;12.13;;;4.53;;
82034;SDS011;71599;49.892;18.914;2023-07-31T17:16:31;8.02;;;3.08;;
82034;SDS011;71599;49.892;18.914;2023-07-31T17:21:35;5.85;;;2.22;;
82034;SDS011;71599;49.892;18.914;2023-07-31T17:26:36;3.33;;;1.77;;
82034;SDS011;71599;49.892;18.914;2023-07-31T17:31:37;4.65;;;2.42;;
82034;SDS011;71599;49.892;18.914;2023-07-31T17:36:39;9.70;;;4.38;;
82034;SDS011;71599;49.892;18.914;2023-07-31T17:41:40;7.10;;;3.60;;
82034;SDS011;71599;49.892;18.914;2023-07-31T17:46:41;10.25;;;3.72;;
82034;SDS011;71599;49.892;18.914;2023-07-31T17:51:43;6.25;;;3.00;;
82034;SDS011;71599;49.892;18.914;2023-07-31T17:56:44;6.38;;;2.70;;
82034;SDS011;71599;49.892;18.914;2023-07-31T18:01:45;8.93;;;2.70;;
82034;SDS011;71599;49.892;18.914;2023-07-31T18:06:48;6.53;;;3.00;;
82034;SDS011;71599;49.892;18.914;2023-07-31T18:11:49;4.53;;;2.30;;
82034;SDS011;71599;49.892;18.914;2023-07-31T18:16:50;6.90;;;2.28;;
82034;SDS011;71599;49.892;18.914;2023-07-31T18:21:52;6.03;;;2.40;;
82034;SDS011;71599;49.892;18.914;2023-07-31T18:26:53;3.83;;;2.42;;
82034;SDS011;71599;49.892;18.914;2023-07-31T18:31:54;3.65;;;2.35;;
82034;SDS011;71599;49.892;18.914;2023-07-31T18:36:56;6.38;;;3.55;;
82034;SDS011;71599;49.892;18.914;2023-07-31T18:41:57;4.75;;;2.70;;
82034;SDS011;71599;49.892;18.914;2023-07-31T18:46:58;6.47;;;3.53;;
82034;SDS011;71599;49.892;18.914;2023-07-31T18:52:01;10.45;;;3.75;;
82034;SDS011;71599;49.892;18.914;2023-07-31T18:57:02;5.10;;;3.10;;
82034;SDS011;71599;49.892;18.914;2023-07-31T19:02:03;5.50;;;3.38;;
82034;SDS011;71599;49.892;18.914;2023-07-31T19:07:06;10.02;;;3.60;;
82034;SDS011;71599;49.892;18.914;2023-07-31T19:12:07;4.45;;;3.00;;
82034;SDS011;71599;49.892;18.914;2023-07-31T19:17:08;6.38;;;3.33;;
82034;SDS011;71599;49.892;18.914;2023-07-31T19:22:10;5.35;;;2.70;;
82034;SDS011;71599;49.892;18.914;2023-07-31T19:27:12;6.28;;;3.42;;
82034;SDS011;71599;49.892;18.914;2023-07-31T19:32:13;6.35;;;2.92;;
82034;SDS011;71599;49.892;18.914;2023-07-31T19:37:15;6.57;;;3.25;;
82034;SDS011;71599;49.892;18.914;2023-07-31T19:42:16;5.22;;;2.28;;
82034;SDS011;71599;49.892;18.914;2023-07-31T19:47:17;5.15;;;2.45;;
82034;SDS011;71599;49.892;18.914;2023-07-31T19:52:19;7.35;;;2.90;;
82034;SDS011;71599;49.892;18.914;2023-07-31T19:57:20;4.32;;;2.95;;
82034;SDS011;71599;49.892;18.914;2023-07-31T20:02:21;3.95;;;3.00;;
82034;SDS011;71599;49.892;18.914;2023-07-31T20:07:24;7.40;;;3.60;;
82034;SDS011;71599;49.892;18.914;2023-07-31T20:12:25;5.45;;;3.42;;
82034;SDS011;71599;49.892;18.914;2023-07-31T20:17:27;6.95;;;4.32;;
82034;SDS011;71599;49.892;18.914;2023-07-31T20:22:30;7.72;;;3.72;;
82034;SDS011;71599;49.892;18.914;2023-07-31T20:27:31;4.75;;;3.20;;
82034;SDS011;71599;49.892;18.914;2023-07-31T20:32:32;8.02;;;4.25;;
82034;SDS011;71599;49.892;18.914;2023-07-31T20:37:34;7.57;;;3.55;;
82034;SDS011;71599;49.892;18.914;2023-07-31T20:42:35;6.00;;;3.00;;
82034;SDS011;71599;49.892;18.914;2023-07-31T20:47:36;9.95;;;3.75;;
82034;SDS011;71599;49.892;18.914;2023-07-31T20:52:38;5.28;;;2.97;;
82034;SDS011;71599;49.892;18.914;2023-07-31T20:57:39;5.13;;;3.17;;
82034;SDS011;71599;49.892;18.914;2023-07-31T21:02:40;10.20;;;8.77;;
82034;SDS011;71599;49.892;18.914;2023-07-31T21:07:43;7.13;;;3.65;;
82034;SDS011;71599;49.892;18.914;2023-07-31T21:12:44;5.25;;;3.05;;
82034;SDS011;71599;49.892;18.914;2023-07-31T21:17:45;6.07;;;3.28;;
82034;SDS011;71599;49.892;18.914;2023-07-31T21:22:47;7.40;;;3.90;;
82034;SDS011;71599;49.892;18.914;2023-07-31T21:27:48;7.10;;;3.75;;
82034;SDS011;71599;49.892;18.914;2023-07-31T21:32:49;6.10;;;3.47;;
82034;SDS011;71599;49.892;18.914;2023-07-31T21:37:52;7.70;;;3.72;;
82034;SDS011;71599;49.892;18.914;2023-07-31T21:42:53;5.53;;;4.78;;
82034;SDS011;71599;49.892;18.914;2023-07-31T21:47:54;6.18;;;3.25;;
82034;SDS011;71599;49.892;18.914;2023-07-31T21:52:57;52.88;;;27.90;;
82034;SDS011;71599;49.892;18.914;2023-07-31T21:57:58;17.67;;;9.77;;
82034;SDS011;71599;49.892;18.914;2023-07-31T22:02:59;9.50;;;7.57;;
82034;SDS011;71599;49.892;18.914;2023-07-31T22:08:01;21.95;;;12.35;;
82034;SDS011;71599;49.892;18.914;2023-07-31T22:13:02;5.53;;;3.75;;
82034;SDS011;71599;49.892;18.914;2023-07-31T22:18:03;30.95;;;14.77;;
82034;SDS011;71599;49.892;18.914;2023-07-31T22:23:05;50.58;;;24.70;;
82034;SDS011;71599;49.892;18.914;2023-07-31T22:28:06;17.65;;;9.02;;
82034;SDS011;71599;49.892;18.914;2023-07-31T22:33:07;80.40;;;36.03;;
82034;SDS011;71599;49.892;18.914;2023-07-31T22:38:10;50.10;;;25.58;;
82034;SDS011;71599;49.892;18.914;2023-07-31T22:43:11;32.03;;;17.35;;
82034;SDS011;71599;49.892;18.914;2023-07-31T22:48:13;11.75;;;6.50;;
82034;SDS011;71599;49.892;18.914;2023-07-31T22:53:15;29.58;;;15.27;;
82034;SDS011;71599;49.892;18.914;2023-07-31T22:58:16;18.15;;;9.27;;
82034;SDS011;71599;49.892;18.914;2023-07-31T23:03:17;24.38;;;11.85;;
82034;SDS011;71599;49.892;18.914;2023-07-31T23:08:19;19.17;;;9.07;;
82034;SDS011;71599;49.892;18.914;2023-07-31T23:13:20;4.75;;;3.20;;
82034;SDS011;71599;49.892;18.914;2023-07-31T23:18:21;11.85;;;6.95;;
82034;SDS011;71599;49.892;18.914;2023-07-31T23:23:24;20.85;;;9.50;;
82034;SDS011;71599;49.892;18.914;2023-07-31T23:28:25;14.93;;;7.85;;
82034;SDS011;71599;49.892;18.914;2023-07-31T23:33:26;11.82;;;6.18;;
82034;SDS011;71599;49.892;18.914;2023-07-31T23:38:29;12.90;;;7.43;;
82034;SDS011;71599;49.892;18.914;2023-07-31T23:43:29;13.32;;;8.15;;
82034;SDS011;71599;49.892;18.914;2023-07-31T23:48:30;26.75;;;14.05;;
82034;SDS011;71599;49.892;18.914;2023-07-31T23:53:33;9.38;;;4.38;;
82034;SDS011;71599;49.892;18.914;2023-07-31T23:58:34;8.88;;;4.55;;
